Terminal Aerodrome Forecast
Issued by NWS Omaha/Valley, NE

Home | Current Version | Previous Version | Graphics & Text | Print | Product List | Glossary On
Versions: 1 2 3 4 5 6 7 8 9 10 11 12 13 14 15 16 17 18 19 20 21 22 23 24 25 26 27 28 29 30 31 32 33 34
826
FTUS43 KOAX 242320
TAFOFK
TAF
KOFK 242320Z 2500/2524 34006KT P6SM OVC150
     FM251200 34006KT P6SM BKN150
     FM251700 35010KT P6SM SCT110
     FM252300 01006KT P6SM SCT250=

USA.gov is the U.S. government's official web portal to all federal, state and local government web resources and services.